Time;durP1;ratioP1;P1;durP2;ratioP2;P2;SDS_P1;SDS_P2;PMS_P1;PMS_P2;Temp;Humidity;BMP_temperature;BMP_pressure;BME280_temperature;BME280_humidity;BME280_pressure;Samples;Min_cycle;Max_cycle;Signal;HPM_P1;HPM_P2
2021/07/06 00:02:26;;;;;;;6.12;4.05;;;;;;;21.29;74.09;98954.89;1720346;81;21083;-64
2021/07/06 00:04:59;;;;;;;4.37;3.37;;;;;;;21.28;74.05;98951.13;1735242;82;20947;-64
2021/07/06 00:07:26;;;;;;;5.85;3.55;;;;;;;21.25;74.07;98952.66;1737753;81;21536;-65
2021/07/06 00:09:53;;;;;;;5.50;3.80;;;;;;;21.22;74.13;98951.19;1725668;82;20968;-64
2021/07/06 00:12:20;;;;;;;6.58;3.77;;;;;;;21.21;74.21;98960.07;1715000;82;20992;-64
2021/07/06 00:14:46;;;;;;;7.00;3.80;;;;;;;21.19;74.21;98959.61;1719228;82;20952;-64
2021/07/06 00:17:13;;;;;;;5.62;3.67;;;;;;;21.20;74.20;98955.69;1718867;82;21621;-64
2021/07/06 00:19:41;;;;;;;6.75;4.00;;;;;;;21.20;74.14;98963.19;1717812;82;20958;-64
2021/07/06 00:22:08;;;;;;;9.35;3.65;;;;;;;21.17;74.25;98959.77;1723470;82;21032;-64
2021/07/06 00:24:35;;;;;;;9.70;4.08;;;;;;;21.15;74.37;98955.95;1720143;82;20995;-64
2021/07/06 00:27:01;;;;;;;6.25;3.70;;;;;;;21.09;74.43;98955.99;1728776;81;21602;-64
2021/07/06 00:29:28;;;;;;;5.20;3.85;;;;;;;21.07;74.50;98963.86;1712702;82;20948;-64
2021/07/06 00:31:55;;;;;;;5.30;3.90;;;;;;;21.08;74.50;98966.05;1703841;82;21075;-64
2021/07/06 00:34:22;;;;;;;5.15;4.08;;;;;;;21.08;74.45;98959.91;1737237;82;21019;-65
2021/07/06 00:36:50;;;;;;;4.40;3.65;;;;;;;21.07;74.46;98954.75;1718361;82;21122;-64
2021/07/06 00:39:17;;;;;;;6.33;3.85;;;;;;;20.95;74.51;98950.13;1726132;82;21494;-64
2021/07/06 00:41:45;;;;;;;8.85;3.83;;;;;;;20.98;74.63;98959.09;1723100;82;21197;-64
2021/07/06 00:44:18;;;;;;;7.10;3.62;;;;;;;20.96;74.74;98960.03;1723715;82;21039;-64
2021/07/06 00:46:45;;;;;;;6.37;4.40;;;;;;;20.92;74.84;98959.14;1718064;82;21787;-63
2021/07/06 00:49:11;;;;;;;5.62;3.72;;;;;;;20.91;74.93;98960.88;1717749;83;21026;-64
2021/07/06 00:51:38;;;;;;;6.33;4.03;;;;;;;20.88;75.02;98955.48;1734497;81;21007;-64
2021/07/06 00:54:04;;;;;;;5.40;3.62;;;;;;;20.87;75.01;98963.55;1714409;82;21488;-65
2021/07/06 00:56:31;;;;;;;7.33;3.80;;;;;;;20.86;75.05;98964.73;1737456;81;20916;-64
2021/07/06 00:58:57;;;;;;;9.08;4.37;;;;;;;20.85;75.04;98976.95;1737699;82;21011;-64
2021/07/06 01:01:24;;;;;;;9.18;3.60;;;;;;;20.85;75.02;98971.42;1718288;82;20979;-64
2021/07/06 01:03:50;;;;;;;4.53;3.37;;;;;;;20.85;75.01;98970.04;1719419;82;21018;-64
2021/07/06 01:06:16;;;;;;;5.58;3.70;;;;;;;20.81;75.04;98967.19;1737547;82;21003;-64
2021/07/06 01:08:45;;;;;;;6.60;3.72;;;;;;;20.78;75.09;98971.24;1737598;81;21048;-64
2021/07/06 01:11:13;;;;;;;4.40;3.58;;;;;;;20.76;75.10;98981.27;1735444;82;21393;-64
2021/07/06 01:13:40;;;;;;;7.37;4.12;;;;;;;20.78;75.12;98983.69;1730399;81;21010;-65
2021/07/06 01:16:06;;;;;;;5.33;3.83;;;;;;;20.77;75.02;98978.73;1734110;82;21421;-64
2021/07/06 01:18:34;;;;;;;5.12;3.80;;;;;;;20.76;75.04;98978.50;1732021;81;21054;-65
2021/07/06 01:21:00;;;;;;;4.65;3.58;;;;;;;20.75;74.99;98984.41;1717709;83;21016;-65
2021/07/06 01:23:29;;;;;;;6.85;3.90;;;;;;;20.74;75.06;98988.33;1725239;81;21026;-63
2021/07/06 01:26:03;;;;;;;6.83;3.83;;;;;;;20.72;75.07;98980.98;1725265;81;21411;-63
2021/07/06 01:28:31;;;;;;;5.85;4.03;;;;;;;20.67;75.21;98983.42;1725304;83;21073;-63
2021/07/06 01:30:57;;;;;;;5.40;3.98;;;;;;;20.59;75.40;98988.54;1740327;82;21596;-63
2021/07/06 01:33:27;;;;;;;7.60;3.70;;;;;;;20.57;75.54;98983.15;1735986;81;21476;-62
2021/07/06 01:36:01;;;;;;;5.45;3.65;;;;;;;20.56;75.61;98989.83;1716240;82;21466;-62
2021/07/06 01:38:23;;;;;;;7.47;4.03;;;;;;;20.51;75.69;98994.25;1729700;82;21044;-63
2021/07/06 01:40:50;;;;;;;8.60;4.00;;;;;;;20.49;75.81;98993.80;1742593;82;21465;-63
2021/07/06 01:43:16;;;;;;;6.80;3.62;;;;;;;20.48;75.90;98997.70;1737741;81;21011;-63
2021/07/06 01:45:43;;;;;;;5.50;3.83;;;;;;;20.47;76.01;98998.88;1688919;83;21034;-64
2021/07/06 01:48:09;;;;;;;6.28;4.10;;;;;;;20.46;76.09;99003.61;1719612;82;21047;-63
2021/07/06 01:50:41;;;;;;;5.30;4.35;;;;;;;20.47;76.14;99000.27;1708997;82;21018;-63
2021/07/06 01:53:13;;;;;;;4.70;4.17;;;;;;;20.43;76.28;99005.70;1715817;82;21023;-63
2021/07/06 01:55:44;;;;;;;5.12;4.42;;;;;;;20.41;76.36;99001.09;1726602;82;21474;-63
2021/07/06 01:58:13;;;;;;;6.90;4.05;;;;;;;20.42;76.34;99004.09;1718676;82;21027;-63
2021/07/06 02:00:43;;;;;;;7.70;4.12;;;;;;;20.43;76.30;99008.47;1687351;83;21015;-63
2021/07/06 02:03:11;;;;;;;6.37;4.20;;;;;;;20.42;76.35;99016.53;1686327;83;21031;-63
2021/07/06 02:05:45;;;;;;;4.83;4.00;;;;;;;20.41;76.40;99024.59;1738228;82;21475;-63
2021/07/06 02:08:15;;;;;;;5.50;4.20;;;;;;;20.42;76.47;99028.16;1730085;82;20987;-63
2021/07/06 02:10:42;;;;;;;5.35;3.92;;;;;;;20.43;76.50;99018.72;1727768;82;20969;-63
2021/07/06 02:13:12;;;;;;;5.12;4.40;;;;;;;20.44;76.53;99027.24;1711532;82;21533;-63
2021/07/06 02:15:40;;;;;;;6.97;4.67;;;;;;;20.45;76.58;99024.68;1712973;82;20952;-63
2021/07/06 02:18:22;;;;;;;5.15;4.65;;;;;;;20.47;76.68;99028.72;1727948;82;21019;-63
2021/07/06 02:20:50;;;;;;;7.83;4.75;;;;;;;20.45;76.81;99032.97;1736932;82;21011;-63
2021/07/06 02:23:16;;;;;;;6.45;4.78;;;;;;;20.48;76.85;99029.50;1711788;82;21324;-63
2021/07/06 02:25:44;;;;;;;8.13;4.75;;;;;;;20.52;76.66;99030.40;1706944;82;20936;-63
2021/07/06 02:28:11;;;;;;;6.72;4.75;;;;;;;20.54;76.60;99039.97;1720171;82;21541;-63
2021/07/06 02:30:38;;;;;;;5.65;4.15;;;;;;;20.57;76.62;99037.88;1719180;82;20971;-64
2021/07/06 02:33:04;;;;;;;6.78;4.35;;;;;;;20.58;76.51;99042.22;1700267;82;21060;-62
2021/07/06 02:35:31;;;;;;;5.87;4.15;;;;;;;20.60;76.40;99046.84;1703220;83;21015;-63
2021/07/06 02:38:00;;;;;;;8.70;4.60;;;;;;;20.63;76.36;99042.55;1728631;82;21541;-63
2021/07/06 02:40:28;;;;;;;5.78;4.30;;;;;;;20.59;76.42;99041.65;1717180;82;21486;-63
2021/07/06 02:42:55;;;;;;;6.10;4.08;;;;;;;20.60;76.44;99043.27;1712996;81;21102;-63
2021/07/06 02:45:22;;;;;;;9.60;4.33;;;;;;;20.65;76.32;99039.65;1705427;82;21046;-63
2021/07/06 02:47:49;;;;;;;6.05;4.25;;;;;;;20.71;76.17;99047.13;1716957;82;21039;-63
2021/07/06 02:50:20;;;;;;;7.15;4.30;;;;;;;20.77;76.00;99048.45;1717814;83;21008;-63
2021/07/06 02:52:47;;;;;;;6.25;4.25;;;;;;;20.77;75.82;99052.03;1707460;83;21047;-63
2021/07/06 02:55:14;;;;;;;6.60;4.15;;;;;;;20.78;75.92;99055.61;1707618;83;21509;-63
2021/07/06 02:57:40;;;;;;;6.20;4.20;;;;;;;20.88;75.61;99063.95;1715998;81;21111;-63
2021/07/06 03:00:21;;;;;;;6.22;4.35;;;;;;;20.92;75.43;99058.73;1712116;82;21007;-63
2021/07/06 03:02:54;;;;;;;6.08;4.25;;;;;;;20.98;75.37;99055.11;1720028;82;21435;-63
2021/07/06 03:05:22;;;;;;;8.50;4.00;;;;;;;20.97;75.38;99057.67;1698864;83;20979;-63
2021/07/06 03:07:49;;;;;;;5.45;4.28;;;;;;;21.02;75.33;99070.65;1707878;82;21087;-63
2021/07/06 03:10:32;;;;;;;6.22;4.33;;;;;;;21.12;75.21;99067.38;1711172;82;21016;-63
2021/07/06 03:12:59;;;;;;;8.25;3.85;;;;;;;21.24;75.09;99067.87;1722914;81;21027;-63
2021/07/06 03:15:27;;;;;;;5.67;4.20;;;;;;;21.35;74.82;99067.55;1730428;82;21471;-63
2021/07/06 03:17:54;;;;;;;6.12;4.12;;;;;;;21.44;74.59;99068.73;1705577;82;21570;-62
2021/07/06 03:20:23;;;;;;;9.70;4.22;;;;;;;21.52;74.27;99066.36;1724882;82;21007;-63
2021/07/06 03:22:50;;;;;;;4.58;3.98;;;;;;;21.62;74.21;99063.03;1704371;83;21043;-63
2021/07/06 03:25:18;;;;;;;7.42;3.92;;;;;;;21.76;73.79;99069.70;1730164;82;21577;-63
2021/07/06 03:27:45;;;;;;;8.70;4.85;;;;;;;21.86;73.55;99069.70;1687815;83;21529;-63
2021/07/06 03:30:15;;;;;;;7.92;4.42;;;;;;;21.96;73.39;99066.42;1682080;83;21422;-63
2021/07/06 03:32:41;;;;;;;6.37;4.50;;;;;;;22.11;72.55;99073.84;1725782;82;21051;-63
2021/07/06 03:35:09;;;;;;;5.65;3.80;;;;;;;22.25;72.02;99069.98;1734709;82;20951;-62
2021/07/06 03:37:35;;;;;;;6.75;4.15;;;;;;;22.39;71.51;99070.84;1736526;81;21581;-63
2021/07/06 03:40:05;;;;;;;6.37;4.00;;;;;;;22.41;70.88;99076.05;1729435;82;20996;-63
2021/07/06 03:42:31;;;;;;;6.17;3.65;;;;;;;22.37;70.57;99075.97;1743037;81;20987;-63
2021/07/06 03:44:58;;;;;;;6.37;4.15;;;;;;;22.43;70.52;99077.27;1733848;82;20943;-63
2021/07/06 03:47:24;;;;;;;6.12;4.35;;;;;;;22.46;70.11;99080.70;1722356;81;21051;-63
2021/07/06 03:49:50;;;;;;;6.53;4.45;;;;;;;22.41;69.92;99081.59;1712203;82;21443;-62
2021/07/06 03:52:17;;;;;;;7.25;3.62;;;;;;;22.39;70.09;99079.78;1733297;82;21371;-63
2021/07/06 03:54:43;;;;;;;5.50;3.87;;;;;;;22.37;69.76;99076.55;1730740;82;21042;-63
2021/07/06 03:57:10;;;;;;;7.33;3.92;;;;;;;22.33;69.92;99084.80;1725265;82;21612;-62
2021/07/06 03:59:37;;;;;;;9.50;4.28;;;;;;;22.38;70.25;99087.30;1699949;82;21046;-63
2021/07/06 04:02:04;;;;;;;7.92;4.20;;;;;;;22.51;69.98;99095.67;1728378;82;21141;-62
2021/07/06 04:04:30;;;;;;;5.50;4.20;;;;;;;22.54;69.65;99092.16;1713248;82;20972;-63
2021/07/06 04:06:58;;;;;;;4.67;3.83;;;;;;;22.56;69.30;99090.42;1733888;81;21063;-60
2021/07/06 04:09:25;;;;;;;7.47;4.00;;;;;;;22.63;68.96;99097.48;1686989;83;21558;-62
2021/07/06 04:11:52;;;;;;;5.50;4.00;;;;;;;22.65;68.88;99102.08;1726307;82;21047;-62
2021/07/06 04:14:18;;;;;;;6.15;4.67;;;;;;;22.58;68.97;99099.97;1726262;82;21644;-63
2021/07/06 04:16:46;;;;;;;4.67;3.75;;;;;;;22.47;69.00;99103.11;1731693;81;21083;-63
2021/07/06 04:19:12;;;;;;;5.20;3.87;;;;;;;22.47;69.41;99100.91;1741502;82;21365;-62
2021/07/06 04:21:39;;;;;;;6.75;3.95;;;;;;;22.50;69.44;99098.22;1741586;81;21019;-63
2021/07/06 04:24:06;;;;;;;7.00;4.10;;;;;;;22.54;69.41;99096.89;1724775;82;21023;-62
2021/07/06 04:26:32;;;;;;;4.85;3.90;;;;;;;22.48;69.32;99107.50;1736018;81;21011;-63
2021/07/06 04:28:59;;;;;;;10.28;4.20;;;;;;;22.42;69.66;99102.03;1737663;82;21046;-62
2021/07/06 04:31:25;;;;;;;4.87;3.50;;;;;;;22.41;69.83;99100.42;1736903;81;20971;-63
2021/07/06 04:33:51;;;;;;;5.28;4.20;;;;;;;22.42;69.81;99104.00;1728136;82;20991;-62
2021/07/06 04:36:18;;;;;;;5.87;4.25;;;;;;;22.35;69.75;99108.02;1719079;82;20983;-64
2021/07/06 04:38:44;;;;;;;7.95;4.40;;;;;;;22.30;69.97;99103.55;1717799;83;21937;-63
2021/07/06 04:41:11;;;;;;;5.65;4.28;;;;;;;22.27;70.40;99112.03;1743275;82;21042;-64
2021/07/06 04:43:37;;;;;;;6.58;3.90;;;;;;;22.31;70.68;99112.91;1738707;81;21019;-64
2021/07/06 04:46:03;;;;;;;7.78;4.20;;;;;;;22.42;70.84;99114.52;1735977;82;20964;-64
2021/07/06 04:48:30;;;;;;;7.72;4.95;;;;;;;22.52;70.50;99111.73;1722005;82;21518;-64
2021/07/06 04:51:03;;;;;;;6.83;4.60;;;;;;;22.56;70.25;99113.41;1738115;82;21007;-64
2021/07/06 04:53:24;;;;;;;5.90;4.20;;;;;;;22.55;70.15;99110.99;1731738;81;21062;-64
2021/07/06 04:55:50;;;;;;;7.85;4.47;;;;;;;22.58;70.23;99114.42;1736175;82;20995;-64
2021/07/06 04:58:17;;;;;;;8.48;4.35;;;;;;;22.59;69.65;99114.06;1724202;81;21040;-63
2021/07/06 05:00:44;;;;;;;5.42;4.17;;;;;;;22.49;69.79;99113.85;1732829;83;20999;-63
2021/07/06 05:03:12;;;;;;;8.60;4.60;;;;;;;22.42;70.17;99110.35;1733516;81;21079;-62
2021/07/06 05:05:39;;;;;;;6.15;4.47;;;;;;;22.40;70.24;99106.31;1715640;82;21000;-63
2021/07/06 05:08:11;;;;;;;5.83;4.60;;;;;;;22.46;70.08;99114.59;1717541;83;21668;-63
2021/07/06 05:10:38;;;;;;;7.92;4.92;;;;;;;22.55;69.83;99112.38;1719609;82;20986;-63
2021/07/06 05:13:05;;;;;;;5.85;4.40;;;;;;;22.57;70.03;99116.96;1735569;81;21067;-63
2021/07/06 05:15:32;;;;;;;6.15;4.30;;;;;;;22.66;70.04;99107.27;1737203;82;21011;-64
2021/07/06 05:17:58;;;;;;;6.20;4.05;;;;;;;22.82;69.64;99108.57;1737659;81;21071;-64
2021/07/06 05:20:25;;;;;;;5.78;4.17;;;;;;;23.04;69.42;99115.32;1737675;82;21007;-64
2021/07/06 05:22:52;;;;;;;10.70;5.10;;;;;;;23.23;69.16;99113.89;1736014;82;21051;-65
2021/07/06 05:25:19;;;;;;;8.30;5.30;;;;;;;23.39;68.29;99113.73;1737972;82;21514;-64
2021/07/06 05:27:45;;;;;;;7.53;4.30;;;;;;;23.51;67.55;99110.22;1738069;81;21388;-65
2021/07/06 05:30:14;;;;;;;5.55;4.37;;;;;;;23.67;67.15;99109.47;1735122;82;21004;-64
2021/07/06 05:32:41;;;;;;;6.62;4.90;;;;;;;23.82;67.01;99106.32;1722883;83;21592;-65
2021/07/06 05:35:09;;;;;;;5.85;4.60;;;;;;;24.09;66.91;99105.73;1722923;83;21122;-65
2021/07/06 05:38:26;;;;;;;7.85;4.30;;;;;;;24.52;65.02;99105.69;1784946;79;23193;-63
2021/07/06 05:40:57;;;;;;;10.85;5.22;;;;;;;24.62;64.96;99107.81;1745522;82;20971;-62
2021/07/06 05:43:22;;;;;;;5.67;4.60;;;;;;;24.69;63.90;99102.33;1723639;82;21050;-63
2021/07/06 05:45:55;;;;;;;6.85;4.67;;;;;;;24.68;63.64;99106.29;1676612;85;21022;-63
2021/07/06 05:48:21;;;;;;;9.43;4.87;;;;;;;24.72;63.50;99102.96;1697560;84;21048;-63
2021/07/06 05:50:48;;;;;;;7.40;4.72;;;;;;;24.82;63.29;99100.88;1711079;83;21526;-65
2021/07/06 05:53:14;;;;;;;5.80;4.30;;;;;;;24.87;63.60;99103.33;1709903;83;21052;-64
2021/07/06 05:55:41;;;;;;;7.35;4.75;;;;;;;25.09;63.25;99105.73;1694977;84;21052;-64
2021/07/06 05:58:07;;;;;;;5.33;4.40;;;;;;;25.14;61.73;99104.01;1712576;84;21106;-65
2021/07/06 06:00:34;;;;;;;7.30;4.87;;;;;;;25.14;61.73;99104.01;1708027;84;21016;-65
2021/07/06 06:03:01;;;;;;;7.78;4.65;;;;;;;25.07;62.73;99100.57;1711755;83;21593;-65
2021/07/06 06:05:28;;;;;;;9.05;4.70;;;;;;;25.18;63.07;99097.88;1712811;83;21068;-65
2021/07/06 06:07:54;;;;;;;8.33;4.75;;;;;;;25.52;61.32;99109.14;1698143;83;21052;-64
2021/07/06 06:10:21;;;;;;;7.47;4.30;;;;;;;25.52;61.32;99109.14;1684192;84;21044;-64
2021/07/06 06:12:47;;;;;;;6.67;4.78;;;;;;;25.64;61.32;99103.86;1690529;84;21080;-64
2021/07/06 06:15:14;;;;;;;5.00;4.42;;;;;;;25.88;61.51;99110.20;1706844;84;21054;-64
2021/07/06 06:17:42;;;;;;;7.03;4.50;;;;;;;26.14;60.99;99105.78;1696098;82;21644;-66
2021/07/06 06:20:09;;;;;;;7.53;4.60;;;;;;;26.44;59.30;99111.70;1693521;82;21027;-64
2021/07/06 06:22:36;;;;;;;7.60;4.60;;;;;;;26.40;58.41;99115.08;1685268;84;21573;-64
2021/07/06 06:25:05;;;;;;;6.17;4.67;;;;;;;26.25;58.69;99112.04;1695446;82;21093;-64
2021/07/06 06:27:32;;;;;;;7.50;4.75;;;;;;;26.26;59.53;99107.44;1673042;84;21117;-63
2021/07/06 06:29:58;;;;;;;7.35;4.50;;;;;;;26.49;59.42;99114.14;1696592;84;21538;-64
2021/07/06 06:32:24;;;;;;;8.15;4.87;;;;;;;26.70;58.61;99117.00;1704953;84;21613;-62
2021/07/06 06:34:52;;;;;;;5.40;4.40;;;;;;;26.78;58.72;99117.23;1702113;84;21007;-63
2021/07/06 06:37:18;;;;;;;6.83;4.40;;;;;;;26.88;58.89;99119.28;1706085;83;21632;-64
2021/07/06 06:39:45;;;;;;;5.65;3.90;;;;;;;27.04;57.12;99121.70;1697204;84;21047;-64
2021/07/06 06:42:11;;;;;;;7.10;4.28;;;;;;;27.08;57.15;99121.11;1679111;84;21122;-64
2021/07/06 06:44:38;;;;;;;6.05;4.20;;;;;;;27.16;56.66;99118.53;1670789;86;21094;-63
2021/07/06 06:47:05;;;;;;;5.42;3.90;;;;;;;27.26;56.22;99121.12;1671029;86;21127;-65
2021/07/06 06:49:33;;;;;;;6.55;4.45;;;;;;;27.32;55.91;99113.94;1686819;84;21052;-64
2021/07/06 06:51:59;;;;;;;6.47;3.87;;;;;;;27.36;55.35;99114.74;1684792;84;21584;-63
2021/07/06 06:54:26;;;;;;;5.45;4.17;;;;;;;27.31;55.62;99120.75;1669636;86;21003;-64
2021/07/06 06:56:52;;;;;;;7.45;4.47;;;;;;;27.20;56.21;99127.13;1677734;84;21071;-65
2021/07/06 06:59:19;;;;;;;5.90;4.33;;;;;;;27.24;56.92;99121.55;1683387;84;21011;-65
2021/07/06 07:01:46;;;;;;;7.28;4.05;;;;;;;27.35;56.17;99123.72;1698538;84;21185;-65
2021/07/06 07:04:12;;;;;;;5.60;4.37;;;;;;;27.40;55.68;99129.52;1701579;84;21874;-65
2021/07/06 07:06:38;;;;;;;9.10;4.65;;;;;;;27.40;55.83;99130.33;1717157;82;21015;-63
2021/07/06 07:09:07;;;;;;;5.17;3.80;;;;;;;27.45;55.04;99134.77;1732586;82;21043;-66
2021/07/06 07:11:34;;;;;;;5.12;3.70;;;;;;;27.43;54.94;99128.12;1726966;82;21008;-64
2021/07/06 07:14:02;;;;;;;6.05;3.70;;;;;;;27.37;54.57;99140.11;1718487;82;21000;-66
2021/07/06 07:16:29;;;;;;;5.15;3.85;;;;;;;27.20;54.63;99127.72;1715737;82;21015;-65
2021/07/06 07:18:56;;;;;;;9.73;3.72;;;;;;;27.24;55.29;99126.33;1715932;82;21090;-65
2021/07/06 07:21:23;;;;;;;7.30;4.25;;;;;;;27.32;54.47;99130.70;1746485;82;21079;-66
2021/07/06 07:23:50;;;;;;;6.35;4.17;;;;;;;27.30;55.17;99124.73;1745695;82;21632;-64
2021/07/06 07:26:17;;;;;;;6.45;4.10;;;;;;;27.33;54.91;99128.12;1709824;82;21034;-65
2021/07/06 07:28:44;;;;;;;6.33;4.37;;;;;;;27.31;54.71;99122.95;1683700;84;21679;-65
2021/07/06 07:31:11;;;;;;;7.58;4.22;;;;;;;27.41;55.14;99126.94;1717408;83;21043;-65
2021/07/06 07:33:37;;;;;;;5.87;4.33;;;;;;;27.56;55.36;99122.98;1717354;83;21106;-65
2021/07/06 07:36:05;;;;;;;4.78;3.72;;;;;;;27.62;54.75;99128.37;1725356;82;21521;-66
2021/07/06 07:38:32;;;;;;;6.08;4.30;;;;;;;27.72;55.63;99133.15;1722451;82;21130;-66
2021/07/06 07:40:58;;;;;;;6.72;3.92;;;;;;;27.93;53.76;99131.72;1732212;82;21046;-65
2021/07/06 07:43:25;;;;;;;5.37;3.42;;;;;;;27.97;53.36;99128.33;1737376;82;21067;-63
2021/07/06 07:45:51;;;;;;;5.85;3.40;;;;;;;27.98;53.16;99131.33;1730527;82;21027;-63
2021/07/06 07:48:18;;;;;;;5.65;3.70;;;;;;;28.01;52.52;99128.31;1725134;82;21098;-63
2021/07/06 07:50:44;;;;;;;5.67;4.08;;;;;;;27.92;52.20;99135.71;1714772;84;21034;-63
2021/07/06 07:53:10;;;;;;;5.35;3.35;;;;;;;27.80;52.39;99141.73;1752855;82;21055;-63
2021/07/06 07:55:37;;;;;;;4.78;3.52;;;;;;;27.78;54.26;99134.92;1687766;84;21030;-62
2021/07/06 07:58:03;;;;;;;4.87;3.95;;;;;;;27.93;53.56;99132.32;1752797;81;21070;-63
2021/07/06 08:00:30;;;;;;;7.12;3.50;;;;;;;28.06;53.27;99128.69;1752797;82;21027;-63
2021/07/06 08:02:59;;;;;;;4.65;3.40;;;;;;;28.16;53.35;99125.09;1752976;82;21031;-63
2021/07/06 08:05:26;;;;;;;6.50;3.47;;;;;;;28.27;53.32;99131.29;1752420;82;20982;-63
2021/07/06 08:07:52;;;;;;;5.10;3.40;;;;;;;28.35;52.57;99127.25;1714622;84;21112;-63
2021/07/06 08:10:19;;;;;;;4.33;3.08;;;;;;;28.37;52.10;99129.05;1753257;81;20983;-64
2021/07/06 08:12:46;;;;;;;4.40;3.00;;;;;;;28.35;52.26;99129.45;1711463;84;21070;-63
2021/07/06 08:15:13;;;;;;;4.67;3.02;;;;;;;28.44;52.10;99134.63;1723350;83;21007;-65
2021/07/06 08:17:42;;;;;;;5.72;2.90;;;;;;;28.55;51.07;99136.79;1697120;83;21463;-63
2021/07/06 08:20:10;;;;;;;6.08;3.10;;;;;;;28.58;51.33;99131.77;1723509;83;21030;-64
2021/07/06 08:22:38;;;;;;;5.75;3.35;;;;;;;28.76;52.26;99133.13;1723141;83;21640;-63
2021/07/06 08:25:05;;;;;;;4.83;3.20;;;;;;;28.94;50.96;99133.23;1750123;82;20963;-64
2021/07/06 08:27:31;;;;;;;3.45;3.10;;;;;;;29.04;50.63;99134.36;1714624;84;21066;-64
2021/07/06 08:29:58;;;;;;;6.42;3.08;;;;;;;29.08;49.69;99145.75;1753324;82;21522;-63
2021/07/06 08:32:25;;;;;;;4.92;3.05;;;;;;;29.02;48.94;99138.16;1739148;82;21023;-63
2021/07/06 08:34:52;;;;;;;5.60;3.20;;;;;;;28.88;49.42;99136.23;1723284;83;21038;-64
2021/07/06 08:37:19;;;;;;;4.70;3.25;;;;;;;28.77;49.56;99142.50;1697685;83;21042;-63
2021/07/06 08:39:46;;;;;;;4.28;3.45;;;;;;;28.72;49.75;99147.73;1730910;83;21055;-62
2021/07/06 08:42:12;;;;;;;4.62;2.92;;;;;;;28.69;50.22;99145.75;1736939;81;21058;-64
2021/07/06 08:44:41;;;;;;;4.25;2.87;;;;;;;28.70;49.94;99139.73;1760753;81;21027;-63
2021/07/06 08:47:07;;;;;;;4.75;2.95;;;;;;;28.59;49.80;99132.75;1760197;81;21047;-63
2021/07/06 08:49:35;;;;;;;5.60;3.25;;;;;;;28.56;50.04;99140.56;1760556;81;21030;-64
2021/07/06 08:52:03;;;;;;;6.37;3.12;;;;;;;28.59;51.07;99146.75;1760260;81;21445;-64
2021/07/06 08:54:30;;;;;;;8.35;2.87;;;;;;;28.71;51.24;99144.73;1760897;81;21003;-63
2021/07/06 08:56:57;;;;;;;5.80;3.30;;;;;;;28.72;51.18;99139.34;1760582;81;21577;-63
2021/07/06 08:59:23;;;;;;;4.83;3.02;;;;;;;28.80;50.33;99142.30;1761166;81;20983;-63
2021/07/06 09:01:51;;;;;;;3.72;2.90;;;;;;;28.77;50.07;99142.50;1749314;81;21046;-63
2021/07/06 09:04:17;;;;;;;5.60;3.20;;;;;;;28.71;50.53;99148.34;1735192;81;21604;-64
2021/07/06 09:06:55;;;;;;;6.45;3.02;;;;;;;28.76;50.72;99142.33;1761149;81;20997;-63
2021/07/06 09:09:28;;;;;;;6.22;3.20;;;;;;;28.77;50.08;99143.89;1760625;81;21042;-63
2021/07/06 09:11:55;;;;;;;8.85;3.45;;;;;;;28.74;50.55;99141.11;1732312;81;21034;-63
2021/07/06 09:14:25;;;;;;;4.62;3.40;;;;;;;28.78;50.63;99134.90;1730485;83;21552;-63
2021/07/06 09:16:51;;;;;;;5.90;3.37;;;;;;;28.79;50.61;99145.70;1730573;83;21043;-63
2021/07/06 09:19:25;;;;;;;5.60;3.05;;;;;;;28.77;50.52;99140.33;1730461;83;21026;-63
2021/07/06 09:22:15;;;;;;;6.25;3.50;;;;;;;28.76;50.69;99145.72;1732776;81;21057;-62
2021/07/06 09:24:44;;;;;;;6.22;3.30;;;;;;;28.81;51.14;99136.28;1730756;83;20967;-63
2021/07/06 09:27:26;;;;;;;7.22;3.25;;;;;;;28.89;51.06;99139.24;1730737;83;21090;-63
2021/07/06 09:30:19;;;;;;;5.28;3.20;;;;;;;28.88;50.53;99136.84;1747353;81;20975;-63
2021/07/06 09:32:53;;;;;;;3.90;3.30;;;;;;;28.87;50.58;99143.67;1760807;81;21114;-62
2021/07/06 09:35:28;;;;;;;4.62;3.12;;;;;;;28.80;50.12;99141.70;1760389;81;20979;-62
2021/07/06 09:38:04;;;;;;;4.70;3.10;;;;;;;28.72;50.43;99144.34;1758180;81;21027;-62
2021/07/06 09:40:38;;;;;;;4.47;3.00;;;;;;;28.76;49.21;99142.33;1750977;82;21469;-64
2021/07/06 09:43:25;;;;;;;4.28;3.22;;;;;;;28.74;49.87;99142.52;1707305;84;21529;-66
2021/07/06 09:46:09;;;;;;;3.72;3.30;;;;;;;28.64;50.18;99143.54;1739027;82;20928;-63
2021/07/06 09:48:43;;;;;;;6.12;3.42;;;;;;;28.50;50.71;99151.19;1748904;80;21696;-63
2021/07/06 09:51:19;;;;;;;7.45;4.53;;;;;;;28.40;51.22;99147.83;1743706;82;20976;-63
2021/07/06 09:53:54;;;;;;;3.77;3.02;;;;;;;28.53;52.83;99158.18;1727396;82;21053;-64
2021/07/06 09:56:24;;;;;;;3.90;3.10;;;;;;;28.73;51.35;99159.95;1739383;82;20972;-64
2021/07/06 09:59:01;;;;;;;15.13;12.50;;;;;;;28.81;50.57;99157.89;1732614;82;21031;-64
2021/07/06 10:01:28;;;;;;;7.80;6.50;;;;;;;28.99;50.66;99158.00;1731522;81;20991;-64
2021/07/06 10:03:56;;;;;;;8.20;4.85;;;;;;;29.21;49.27;99146.06;1730015;80;21023;-64
2021/07/06 10:06:26;;;;;;;5.90;3.60;;;;;;;29.35;49.41;99160.61;1750188;82;21011;-63
2021/07/06 10:08:53;;;;;;;6.08;3.67;;;;;;;29.41;50.34;99158.95;1740655;82;20995;-65
2021/07/06 10:11:23;;;;;;;4.95;3.60;;;;;;;29.48;50.26;99159.70;1722308;83;21541;-64
2021/07/06 10:13:55;;;;;;;5.47;3.20;;;;;;;29.51;48.81;99152.49;1722788;82;21078;-62
2021/07/06 10:16:20;;;;;;;7.28;3.50;;;;;;;29.38;49.55;99158.38;1706830;83;20979;-64
2021/07/06 10:18:49;;;;;;;6.25;3.67;;;;;;;29.15;50.36;99158.31;1729092;82;21027;-64
2021/07/06 10:21:15;;;;;;;5.58;3.40;;;;;;;28.86;50.78;99156.07;1722535;83;20991;-64
2021/07/06 10:23:44;;;;;;;5.50;3.80;;;;;;;28.65;51.08;99161.14;1743421;82;21019;-65
2021/07/06 10:26:13;;;;;;;5.60;3.50;;;;;;;28.44;51.52;99160.63;1648675;85;21343;-64
2021/07/06 10:28:39;;;;;;;5.45;3.25;;;;;;;28.24;51.73;99169.25;1746529;82;21130;-64
2021/07/06 10:31:17;;;;;;;8.38;3.90;;;;;;;28.00;52.09;99169.48;1746232;82;21007;-65
2021/07/06 10:33:44;;;;;;;6.72;3.80;;;;;;;27.91;53.16;99168.30;1696205;83;21593;-65
2021/07/06 10:36:12;;;;;;;5.53;3.60;;;;;;;27.88;53.88;99174.08;1722604;83;20979;-65
2021/07/06 10:38:47;;;;;;;6.15;3.80;;;;;;;27.94;53.60;99172.49;1722869;83;21066;-64
2021/07/06 10:41:39;;;;;;;4.77;3.90;;;;;;;28.06;53.10;99171.25;1725955;82;21529;-65
2021/07/06 10:44:06;;;;;;;4.53;3.77;;;;;;;28.31;53.27;99169.84;1722987;83;21034;-66
2021/07/06 10:46:49;;;;;;;6.40;3.50;;;;;;;28.46;52.70;99166.60;1722728;83;21486;-65
2021/07/06 10:49:18;;;;;;;5.65;3.70;;;;;;;28.51;52.70;99170.40;1719735;83;21090;-64
2021/07/06 10:51:48;;;;;;;5.15;3.33;;;;;;;28.53;52.30;99172.17;1743144;82;20958;-63
2021/07/06 10:54:26;;;;;;;5.62;3.58;;;;;;;28.64;51.75;99165.94;1712359;84;21604;-64
2021/07/06 10:57:09;;;;;;;6.28;3.52;;;;;;;28.85;51.13;99166.47;1752221;81;21082;-63
2021/07/06 10:59:37;;;;;;;7.35;3.50;;;;;;;29.04;51.65;99170.78;1752539;81;21659;-64
2021/07/06 11:02:22;;;;;;;6.47;3.85;;;;;;;29.24;50.72;99173.86;1714230;84;21074;-63
2021/07/06 11:04:53;;;;;;;5.90;3.70;;;;;;;29.39;50.17;99171.20;1747085;81;21047;-64
2021/07/06 11:07:42;;;;;;;5.28;3.40;;;;;;;29.45;50.02;99168.94;1725000;82;21039;-65
2021/07/06 11:10:09;;;;;;;4.45;3.15;;;;;;;29.39;50.32;99174.80;1727957;82;20974;-65
2021/07/06 11:12:44;;;;;;;4.15;3.12;;;;;;;29.42;49.69;99173.17;1724887;82;21062;-64
2021/07/06 11:15:16;;;;;;;6.08;3.40;;;;;;;29.45;49.84;99173.75;1723037;83;21158;-64
2021/07/06 11:17:45;;;;;;;5.37;3.95;;;;;;;29.43;49.71;99185.98;1722937;83;21039;-64
2021/07/06 11:20:43;;;;;;;6.80;3.42;;;;;;;29.46;48.38;99180.95;1735013;82;20915;-65
2021/07/06 11:23:16;;;;;;;4.87;2.95;;;;;;;29.55;48.75;99185.48;1714126;84;21074;-64
2021/07/06 11:25:44;;;;;;;6.90;3.40;;;;;;;29.46;48.29;99184.56;1749665;82;20987;-63
2021/07/06 11:28:26;;;;;;;4.10;3.20;;;;;;;29.30;49.45;99189.09;1737250;82;21488;-64
2021/07/06 11:31:03;;;;;;;5.70;3.20;;;;;;;29.11;49.53;99186.96;1742893;82;20955;-64
2021/07/06 11:41:05;;;;;;;;;;;;;;;28.59;51.08;99179.58;1803365;79;22994;-64
2021/07/06 11:43:32;;;;;;;4.55;3.50;;;;;;;28.50;51.50;99180.59;1752511;81;20412;-62
2021/07/06 11:46:05;;;;;;;4.87;3.45;;;;;;;28.38;51.29;99185.21;1752072;82;21027;-64
2021/07/06 11:48:38;;;;;;;4.45;2.92;;;;;;;28.35;52.27;99184.63;1749285;82;21064;-66
2021/07/06 11:51:06;;;;;;;8.20;4.28;;;;;;;28.38;52.40;99185.21;1720651;83;21098;-63